Time,TemperatureF,DewpointF,PressureIn,WindDirection,WindDirectionDegrees,WindSpeedMPH,WindSpeedGustMPH,Humidity,HourlyPrecipIn,Conditions,Clouds,dailyrainin,SolarRadiationWatts/m^2,SoftwareType,DateUTC
2013-08-24 00:02:00,72.0,62.0,-100.00,ESE,122,3.0,6.0,71,0.00,,,0.04,87.000000,,2013-08-24 00:02:00,
2013-08-24 00:11:00,69.0,63.0,-100.00,East,97,1.0,4.0,81,0.00,,,0.04,26.000000,,2013-08-24 00:11:00,
2013-08-24 00:43:00,69.0,63.0,-100.00,East,97,1.0,4.0,81,0.00,,,0.04,26.000000,,2013-08-24 00:43:00,
2013-08-24 00:53:00,69.0,63.0,-100.00,East,97,1.0,4.0,81,0.00,,,0.04,26.000000,,2013-08-24 00:53:00,
2013-08-24 01:02:00,69.0,63.0,-100.00,East,97,1.0,4.0,81,0.00,,,0.04,26.000000,,2013-08-24 01:02:00,
2013-08-24 01:11:00,67.0,63.0,-100.00,ENE,78,1.0,3.0,86,0.00,,,0.04,1.000000,,2013-08-24 01:11:00,
2013-08-24 01:42:00,67.0,63.0,-100.00,ENE,78,1.0,3.0,86,0.00,,,0.04,1.000000,,2013-08-24 01:42:00,
2013-08-24 01:53:00,67.0,63.0,-100.00,ENE,78,1.0,3.0,86,0.00,,,0.04,1.000000,,2013-08-24 01:53:00,
2013-08-24 02:03:00,67.0,63.0,-100.00,ENE,78,1.0,3.0,86,0.00,,,0.04,1.000000,,2013-08-24 02:03:00,
2013-08-24 02:11:00,64.0,62.0,-100.00,WNW,298,1.0,3.0,94,0.00,,,0.04,0.000000,,2013-08-24 02:11:00,
2013-08-24 02:42:00,64.0,62.0,-100.00,WNW,298,1.0,3.0,94,0.00,,,0.04,0.000000,,2013-08-24 02:42:00,
2013-08-24 02:52:00,64.0,62.0,-100.00,WNW,298,1.0,3.0,94,0.00,,,0.04,0.000000,,2013-08-24 02:52:00,
2013-08-24 03:02:00,64.0,62.0,-100.00,WNW,298,1.0,3.0,94,0.00,,,0.04,0.000000,,2013-08-24 03:02:00,
2013-08-24 03:11:00,63.0,62.0,-100.00,NW,309,0.0,2.0,97,0.00,,,0.02,0.000000,,2013-08-24 03:11:00,
2013-08-24 03:44:00,63.0,62.0,-100.00,NW,309,0.0,2.0,97,0.00,,,0.02,0.000000,,2013-08-24 03:44:00,
2013-08-24 03:55:00,63.0,62.0,-100.00,NW,309,0.0,2.0,97,0.00,,,0.02,0.000000,,2013-08-24 03:55:00,
2013-08-24 04:04:00,63.0,62.0,-100.00,NW,309,0.0,2.0,97,0.00,,,0.02,0.000000,,2013-08-24 04:04:00,
2013-08-24 04:11:00,63.0,62.0,-100.00,SE,132,0.0,3.0,98,0.00,,,0.01,0.000000,,2013-08-24 04:11:00,
2013-08-24 04:44:00,63.0,62.0,-100.00,SE,132,0.0,3.0,98,0.00,,,0.01,0.000000,,2013-08-24 04:44:00,
2013-08-24 04:54:00,63.0,62.0,-100.00,SE,132,0.0,3.0,98,0.00,,,0.01,0.000000,,2013-08-24 04:54:00,
2013-08-24 05:03:00,63.0,62.0,-100.00,SE,132,0.0,3.0,98,0.00,,,0.01,0.000000,,2013-08-24 05:03:00,
2013-08-24 05:11:00,61.0,60.0,-100.00,South,187,0.0,2.0,98,0.00,,,0.01,0.000000,,2013-08-24 05:11:00,
2013-08-24 05:43:00,61.0,60.0,-100.00,South,187,0.0,2.0,98,0.00,,,0.01,0.000000,,2013-08-24 05:43:00,
2013-08-24 05:53:00,61.0,60.0,-100.00,South,187,0.0,2.0,98,0.00,,,0.01,0.000000,,2013-08-24 05:53:00,
2013-08-24 06:02:00,61.0,60.0,-100.00,South,187,0.0,2.0,98,0.00,,,0.01,0.000000,,2013-08-24 06:02:00,
2013-08-24 06:11:00,61.0,60.0,-100.00,South,171,0.0,0.0,98,0.00,,,0.01,0.000000,,2013-08-24 06:11:00,
2013-08-24 06:42:00,61.0,60.0,-100.00,South,171,0.0,0.0,98,0.00,,,0.01,0.000000,,2013-08-24 06:42:00,
2013-08-24 06:52:00,61.0,60.0,-100.00,South,171,0.0,0.0,98,0.00,,,0.01,0.000000,,2013-08-24 06:52:00,
2013-08-24 07:02:00,61.0,60.0,-100.00,South,171,0.0,0.0,98,0.00,,,0.01,0.000000,,2013-08-24 07:02:00,
2013-08-24 07:11:00,60.0,60.0,-100.00,West,265,0.0,1.0,99,0.00,,,0.01,0.000000,,2013-08-24 07:11:00,
2013-08-24 07:43:00,60.0,60.0,-100.00,West,265,0.0,1.0,99,0.00,,,0.01,0.000000,,2013-08-24 07:43:00,
2013-08-24 07:53:00,60.0,60.0,-100.00,West,265,0.0,1.0,99,0.00,,,0.01,0.000000,,2013-08-24 07:53:00,
2013-08-24 08:02:00,60.0,60.0,-100.00,West,265,0.0,1.0,99,0.00,,,0.01,0.000000,,2013-08-24 08:02:00,
2013-08-24 08:11:00,58.0,58.0,-100.00,SW,215,0.0,0.0,99,0.00,,,0.01,0.000000,,2013-08-24 08:11:00,
2013-08-24 08:42:00,58.0,58.0,-100.00,SW,215,0.0,0.0,99,0.00,,,0.01,0.000000,,2013-08-24 08:42:00,
2013-08-24 08:52:00,58.0,58.0,-100.00,SW,215,0.0,0.0,99,0.00,,,0.01,0.000000,,2013-08-24 08:52:00,
2013-08-24 09:01:00,58.0,58.0,-100.00,SW,215,0.0,0.0,99,0.00,,,0.01,0.000000,,2013-08-24 09:01:00,
2013-08-24 09:11:00,62.0,62.0,-100.00,WSW,248,1.0,1.0,99,0.00,,,0.01,0.000000,,2013-08-24 09:11:00,
2013-08-24 09:44:00,62.0,62.0,-100.00,WSW,248,1.0,1.0,99,0.00,,,0.01,0.000000,,2013-08-24 09:44:00,
2013-08-24 09:53:00,62.0,62.0,-100.00,WSW,248,1.0,1.0,99,0.00,,,0.01,0.000000,,2013-08-24 09:53:00,
2013-08-24 10:04:00,62.0,62.0,-100.00,WSW,248,1.0,1.0,99,0.00,,,0.01,0.000000,,2013-08-24 10:04:00,
2013-08-24 10:11:00,60.0,60.0,-100.00,ENE,61,0.0,1.0,99,0.00,,,0.01,0.000000,,2013-08-24 10:11:00,
2013-08-24 10:42:00,60.0,60.0,-100.00,ENE,61,0.0,1.0,99,0.00,,,0.01,0.000000,,2013-08-24 10:42:00,
2013-08-24 10:53:00,60.0,60.0,-100.00,ENE,61,0.0,1.0,99,0.00,,,0.01,0.000000,,2013-08-24 10:53:00,
2013-08-24 11:03:00,60.0,60.0,-100.00,ENE,61,0.0,1.0,99,0.00,,,0.01,0.000000,,2013-08-24 11:03:00,
2013-08-24 11:11:00,61.0,61.0,-100.00,West,268,1.0,3.0,99,0.00,,,0.01,4.000000,,2013-08-24 11:11:00,
2013-08-24 11:42:00,61.0,61.0,-100.00,West,268,1.0,3.0,99,0.00,,,0.01,4.000000,,2013-08-24 11:42:00,
2013-08-24 11:52:00,61.0,61.0,-100.00,West,268,1.0,3.0,99,0.00,,,0.01,4.000000,,2013-08-24 11:52:00,
2013-08-24 12:02:00,61.0,61.0,-100.00,West,268,1.0,3.0,99,0.00,,,0.01,4.000000,,2013-08-24 12:02:00,
2013-08-24 12:11:00,63.0,63.0,-100.00,SSW,207,1.0,2.0,99,0.00,,,0.01,77.000000,,2013-08-24 12:11:00,
2013-08-24 12:42:00,63.0,63.0,-100.00,SSW,207,1.0,2.0,99,0.00,,,0.01,77.000000,,2013-08-24 12:42:00,
2013-08-24 12:52:00,63.0,63.0,-100.00,SSW,207,1.0,2.0,99,0.00,,,0.01,77.000000,,2013-08-24 12:52:00,
2013-08-24 13:02:00,63.0,63.0,-100.00,SSW,207,1.0,2.0,99,0.00,,,0.01,77.000000,,2013-08-24 13:02:00,
2013-08-24 13:11:00,69.0,68.0,-100.00,SW,214,3.0,4.0,96,0.00,,,0.01,359.000000,,2013-08-24 13:11:00,
2013-08-24 13:42:00,69.0,68.0,-100.00,SW,214,3.0,4.0,96,0.00,,,0.01,359.000000,,2013-08-24 13:42:00,
2013-08-24 13:52:00,69.0,68.0,-100.00,SW,214,3.0,4.0,96,0.00,,,0.01,359.000000,,2013-08-24 13:52:00,
2013-08-24 14:02:00,69.0,68.0,-100.00,SW,214,3.0,4.0,96,0.00,,,0.01,359.000000,,2013-08-24 14:02:00,
2013-08-24 14:11:00,72.0,61.0,-100.00,WSW,239,4.0,7.0,68,0.00,,,0.00,607.000000,,2013-08-24 14:11:00,
2013-08-24 14:42:00,72.0,61.0,-100.00,WSW,239,4.0,7.0,68,0.00,,,0.00,607.000000,,2013-08-24 14:42:00,
2013-08-24 14:52:00,72.0,61.0,-100.00,WSW,239,4.0,7.0,68,0.00,,,0.00,607.000000,,2013-08-24 14:52:00,
2013-08-24 15:01:00,72.0,61.0,-100.00,WSW,239,4.0,7.0,68,0.00,,,0.00,607.000000,,2013-08-24 15:01:00,
2013-08-24 15:11:00,75.0,60.0,-100.00,WSW,240,4.0,9.0,60,0.00,,,0.00,821.000000,,2013-08-24 15:11:00,
2013-08-24 15:45:00,75.0,60.0,-100.00,WSW,240,4.0,9.0,60,0.00,,,0.00,821.000000,,2013-08-24 15:45:00,
2013-08-24 15:54:00,75.0,60.0,-100.00,WSW,240,4.0,9.0,60,0.00,,,0.00,821.000000,,2013-08-24 15:54:00,
2013-08-24 16:04:00,75.0,60.0,-100.00,WSW,240,4.0,9.0,60,0.00,,,0.00,821.000000,,2013-08-24 16:04:00,
2013-08-24 16:11:00,76.0,58.0,-100.00,SW,235,4.0,8.0,53,0.00,,,0.00,984.000000,,2013-08-24 16:11:00,
2013-08-24 16:42:00,76.0,58.0,-100.00,SW,235,4.0,8.0,53,0.00,,,0.00,984.000000,,2013-08-24 16:42:00,
2013-08-24 16:53:00,76.0,58.0,-100.00,SW,235,4.0,8.0,53,0.00,,,0.00,984.000000,,2013-08-24 16:53:00,
2013-08-24 17:02:00,76.0,58.0,-100.00,SW,235,4.0,8.0,53,0.00,,,0.00,984.000000,,2013-08-24 17:02:00,
2013-08-24 17:11:00,77.0,52.0,-100.00,WSW,252,6.0,10.0,42,0.00,,,0.00,1081.000000,,2013-08-24 17:11:00,
2013-08-24 17:42:00,77.0,52.0,-100.00,WSW,252,6.0,10.0,42,0.00,,,0.00,1081.000000,,2013-08-24 17:42:00,
2013-08-24 17:52:00,77.0,52.0,-100.00,WSW,252,6.0,10.0,42,0.00,,,0.00,1081.000000,,2013-08-24 17:52:00,
2013-08-24 18:03:00,77.0,52.0,-100.00,WSW,252,6.0,10.0,42,0.00,,,0.00,1081.000000,,2013-08-24 18:03:00,
2013-08-24 18:11:00,78.0,50.0,-100.00,WSW,241,5.0,11.0,37,0.00,,,0.00,1092.000000,,2013-08-24 18:11:00,
2013-08-24 18:42:00,78.0,50.0,-100.00,WSW,241,5.0,11.0,37,0.00,,,0.00,1092.000000,,2013-08-24 18:42:00,
2013-08-24 18:53:00,78.0,50.0,-100.00,WSW,241,5.0,11.0,37,0.00,,,0.00,1092.000000,,2013-08-24 18:53:00,
2013-08-24 19:01:00,78.0,50.0,-100.00,WSW,241,5.0,11.0,37,0.00,,,0.00,1092.000000,,2013-08-24 19:01:00,
2013-08-24 19:11:00,79.0,51.0,-100.00,SW,223,4.0,10.0,38,0.00,,,0.00,1050.000000,,2013-08-24 19:11:00,
2013-08-24 19:42:00,79.0,51.0,-100.00,SW,223,4.0,10.0,38,0.00,,,0.00,1050.000000,,2013-08-24 19:42:00,
2013-08-24 19:52:00,79.0,51.0,-100.00,SW,223,4.0,10.0,38,0.00,,,0.00,1050.000000,,2013-08-24 19:52:00,
2013-08-24 20:02:00,79.0,51.0,-100.00,SW,223,4.0,10.0,38,0.00,,,0.00,1050.000000,,2013-08-24 20:02:00,
2013-08-24 20:11:00,80.0,51.0,-100.00,SSW,211,4.0,10.0,37,0.00,,,0.00,873.000000,,2013-08-24 20:11:00,
2013-08-24 20:42:00,80.0,51.0,-100.00,SSW,211,4.0,10.0,37,0.00,,,0.00,873.000000,,2013-08-24 20:42:00,
2013-08-24 20:53:00,80.0,51.0,-100.00,SSW,211,4.0,10.0,37,0.00,,,0.00,873.000000,,2013-08-24 20:53:00,
2013-08-24 21:02:00,80.0,51.0,-100.00,SSW,211,4.0,10.0,37,0.00,,,0.00,873.000000,,2013-08-24 21:02:00,
2013-08-24 21:11:00,78.0,50.0,-100.00,SW,224,4.0,7.0,37,0.00,,,0.00,742.000000,,2013-08-24 21:11:00,
2013-08-24 21:43:00,78.0,50.0,-100.00,SW,224,4.0,7.0,37,0.00,,,0.00,742.000000,,2013-08-24 21:43:00,
2013-08-24 21:55:00,78.0,50.0,-100.00,SW,224,4.0,7.0,37,0.00,,,0.00,742.000000,,2013-08-24 21:55:00,
2013-08-24 22:04:00,78.0,50.0,-100.00,SW,224,4.0,7.0,37,0.00,,,0.00,742.000000,,2013-08-24 22:04:00,
2013-08-24 22:11:00,75.0,50.0,-100.00,SSW,211,5.0,10.0,41,0.00,,,0.00,198.000000,,2013-08-24 22:11:00,
2013-08-24 22:43:00,75.0,50.0,-100.00,SSW,211,5.0,10.0,41,0.00,,,0.00,198.000000,,2013-08-24 22:43:00,
2013-08-24 22:53:00,75.0,50.0,-100.00,SSW,211,5.0,10.0,41,0.00,,,0.00,198.000000,,2013-08-24 22:53:00,
2013-08-24 23:03:00,75.0,50.0,-100.00,SSW,211,5.0,10.0,41,0.00,,,0.00,198.000000,,2013-08-24 23:03:00,
2013-08-24 23:11:00,73.0,49.0,-100.00,SW,233,3.0,9.0,42,0.00,,,0.00,84.000000,,2013-08-24 23:11:00,
2013-08-24 23:43:00,73.0,49.0,-100.00,SW,233,3.0,9.0,42,0.00,,,0.00,84.000000,,2013-08-24 23:43:00,
2013-08-24 23:53:00,73.0,49.0,-100.00,SW,233,3.0,9.0,42,0.00,,,0.00,84.000000,,2013-08-24 23:53:00,